createdAt,value
2023-02-25T00:00:00.000Z,4.69
2023-02-25T00:15:00.000Z,4.79
2023-02-25T00:30:00.000Z,4.98
2023-02-25T00:45:00.000Z,4.24
2023-02-25T01:00:00.000Z,3.52
2023-02-25T01:15:00.000Z,2.66
2023-02-25T01:30:00.000Z,2.34
2023-02-25T01:45:00.000Z,1.4
2023-02-25T02:00:00.000Z,1.36
2023-02-25T02:15:00.000Z,1.09
2023-02-25T02:30:00.000Z,1.13
2023-02-25T02:45:00.000Z,1.31
2023-02-25T03:00:00.000Z,1.18
2023-02-25T03:15:00.000Z,1.07
2023-02-25T03:30:00.000Z,1.06
2023-02-25T03:45:00.000Z,1.52
2023-02-25T04:00:00.000Z,4.29
2023-02-25T04:15:00.000Z,1.76
2023-02-25T04:30:00.000Z,8.66
2023-02-25T04:45:00.000Z,7.34
2023-02-25T05:00:00.000Z,14.06
2023-02-25T05:15:00.000Z,2.11
2023-02-25T05:30:00.000Z,1.53
2023-02-25T05:45:00.000Z,10.55
2023-02-25T06:00:00.000Z,2.76
2023-02-25T06:15:00.000Z,2.26
2023-02-25T06:30:00.000Z,1.89
2023-02-25T06:45:00.000Z,1.66
2023-02-25T07:00:00.000Z,6.47
2023-02-25T07:15:00.000Z,5.81
2023-02-25T07:30:00.000Z,4.48
2023-02-25T07:45:00.000Z,4.75
2023-02-25T08:00:00.000Z,4.8
2023-02-25T08:15:00.000Z,4.92
2023-02-25T08:30:00.000Z,10.36
2023-02-25T08:45:00.000Z,9.61
2023-02-25T09:00:00.000Z,9.93
2023-02-25T09:15:00.000Z,12.59
2023-02-25T09:30:00.000Z,14.04
2023-02-25T09:45:00.000Z,6.74
2023-02-25T10:00:00.000Z,6.51
2023-02-25T10:15:00.000Z,8.06
2023-02-25T10:30:00.000Z,6.8
2023-02-25T10:45:00.000Z,7.02
2023-02-25T11:00:00.000Z,12.78
2023-02-25T11:15:00.000Z,12.68
2023-02-25T11:30:00.000Z,11.07
2023-02-25T11:45:00.000Z,12.17
2023-02-25T12:00:00.000Z,8.15
2023-02-25T12:15:00.000Z,12.87
2023-02-25T12:30:00.000Z,13.67
2023-02-25T12:45:00.000Z,22.32
2023-02-25T13:00:00.000Z,23.98
2023-02-25T13:15:00.000Z,7.69
2023-02-25T13:30:00.000Z,8.91
2023-02-25T13:45:00.000Z,8.24
2023-02-25T14:00:00.000Z,5.48
2023-02-25T14:15:00.000Z,6.02
2023-02-25T14:30:00.000Z,18.32
2023-02-25T14:45:00.000Z,30.92
2023-02-25T15:00:00.000Z,35.47
2023-02-25T15:15:00.000Z,8.53
2023-02-25T15:30:00.000Z,22.94
2023-02-25T15:45:00.000Z,34.09
2023-02-25T16:00:00.000Z,25.31
2023-02-25T16:15:00.000Z,22.28
2023-02-25T16:30:00.000Z,22.96
2023-02-25T16:45:00.000Z,10.35
2023-02-25T17:00:00.000Z,14.12
2023-02-25T17:15:00.000Z,8.76
2023-02-25T17:30:00.000Z,6.65
2023-02-25T17:45:00.000Z,7.51
2023-02-25T18:00:00.000Z,6.59
2023-02-25T18:15:00.000Z,6.19
2023-02-25T18:30:00.000Z,6.25
2023-02-25T18:45:00.000Z,12.4
2023-02-25T19:00:00.000Z,8.85
2023-02-25T19:15:00.000Z,4.62
2023-02-25T19:30:00.000Z,7.41
2023-02-25T19:45:00.000Z,9.09
2023-02-25T20:00:00.000Z,7.89
2023-02-25T20:15:00.000Z,5.39
2023-02-25T20:30:00.000Z,6.93
2023-02-25T20:45:00.000Z,2.89
2023-02-25T21:00:00.000Z,5.94
2023-02-25T21:15:00.000Z,6.78
2023-02-25T21:30:00.000Z,11.99
2023-02-25T21:45:00.000Z,7.72
2023-02-25T22:00:00.000Z,4.54
2023-02-25T22:15:00.000Z,4.54
2023-02-25T22:30:00.000Z,4.09
2023-02-25T22:45:00.000Z,3.27
2023-02-25T23:00:00.000Z,6.07
2023-02-25T23:15:00.000Z,6.29
2023-02-25T23:30:00.000Z,4.96
2023-02-25T23:45:00.000Z,5.55
